Ladysmith, Virginia
Current Conditions -  °F | °C
As of 7:55 AM on Friday 24 Oct 2014 (Local Time) from K7W4 Reporting Station
Clear Clear  
Wind Chill: 44°   Ceiling: Unl
Heat Index: 44°   Visibility: 10mi
Dew Point: 41°   Wind: 0mph
Humidity: 91%   Direction: NA
Pressure: 30"   Gusts: NA
Location:  38.02°N, 77.51°W
Report Text: K7W4 241155Z AUTO 00000KT 10SM CLR 07/05 A3000 RMK AO1 70001 T00660052 10086 20054
Loading
Personal Weather Stations






























Interactive Weather Map
Tropical Storm Tracking
New forecast layout! Learn more

10-Day Weather Forecast

Advertisements
Track Severe Weather on mobile